Tuesday, December 18, 2018, 4:40 PM EST
Back to Local

KVAY, Mt Holly South Jersey Rgnl

Location: Medford, NJ, United States Lat: 39.933
Local Time: 4:40 PM EST (21:40 GMT) Lon: -74.833
Time Zone: US/Eastern Elev: 52 ft

Show me the last for .
Show Decoded

2018-12-18 15:54 METAR KVAY 182054Z AUTO 33006KT 10SM CLR 03/M09 A3011 RMK AO2 SLP198 T00331089
                 53010 =
2018-12-18 14:54 METAR KVAY 181954Z AUTO 32008KT 10SM CLR 04/M09 A3010 RMK AO2 SLP192 T00391094 =
2018-12-18 13:54 METAR KVAY 181854Z AUTO 34013G19KT 10SM CLR 04/M09 A3008 RMK AO2 SLP187
                 T00391094 =
2018-12-18 12:54 METAR KVAY 181754Z AUTO 33014G22KT 10SM CLR 04/M09 A3008 RMK AO2 SLP187
                 T00391094 10039 20011 50001 =
2018-12-18 11:54 METAR KVAY 181654Z AUTO 33013G20KT 270V010 10SM CLR 03/M09 A3009 RMK AO2 PK WND
                 31028/1606 SLP190 T00331089 =
2018-12-18 10:54 METAR KVAY 181554Z AUTO 33012G19KT 10SM CLR 03/M08 A3008 RMK AO2 PK WND
                 32026/1521 SLP186 T00331083 =
2018-12-18 09:54 METAR KVAY 181454Z AUTO 31008G21KT 10SM CLR 03/M08 A3008 RMK AO2 SLP186
                 T00281078 51029 =
2018-12-18 08:54 METAR KVAY 181354Z AUTO 31010G23KT 10SM CLR 02/M07 A3006 RMK AO2 SLP179
                 T00221072 =
2018-12-18 07:54 METAR KVAY 181254Z AUTO 32011KT 10SM CLR 01/M08 A3002 RMK AO2 SLP166 T00111078 =
2018-12-18 06:54 METAR KVAY 181154Z AUTO 31006KT 10SM CLR 02/M08 A2999 RMK AO2 SLP157 T00171083
                 10050 20011 51027 =
2018-12-18 05:54 METAR KVAY 181054Z AUTO 33013G24KT 10SM CLR 02/M09 A2997 RMK AO2 PK WND
                 33028/1010 SLP151 T00221089 =
2018-12-18 04:54 METAR KVAY 180954Z AUTO 32016G26KT 10SM CLR 03/M08 A2995 RMK AO2 PK WND
                 34026/0947 SLP142 T00281078 =
2018-12-18 03:54 METAR KVAY 180854Z AUTO 29015G23KT 260V320 10SM CLR 03/M07 A2991 RMK AO2 SLP130
                 T00331067 53016 =
2018-12-18 02:54 METAR KVAY 180754Z AUTO 32013G18KT 10SM OVC050 04/M06 A2990 RMK AO2 SLP123
                 T00391061 =
2018-12-18 01:54 METAR KVAY 180654Z AUTO 29010G17KT 10SM OVC055 04/M06 A2988 RMK AO2 SLP118
                 T00441061 =
2018-12-18 00:54 METAR KVAY 180554Z AUTO 29014G27KT 10SM BKN049 OVC060 05/M06 A2987 RMK AO2 PK
                 WND 30027/0554 SLP113 T00501056 10061 20050 53003 =
2018-12-17 23:54 METAR KVAY 180454Z AUTO 31010G18KT 270V340 10SM BKN046 OVC055 05/M04 A2986 RMK
                 AO2 SLP112 T00501039 400890028 =
2018-12-17 22:54 METAR KVAY 180354Z AUTO 28009G17KT 10SM OVC050 06/M04 A2985 RMK AO2 SLP108
                 T00561039 =
2018-12-17 21:54 METAR KVAY 180254Z AUTO 31013G18KT 10SM OVC055 06/M04 A2986 RMK AO2 SLP110
                 T00561044 51005 =
2018-12-17 20:54 METAR KVAY 180154Z AUTO 30014G19KT 10SM OVC050 06/M04 A2986 RMK AO2 SLP109
                 T00611039 =
2018-12-17 19:54 METAR KVAY 180054Z AUTO 31009G18KT 10SM OVC050 06/M04 A2986 RMK AO2 PK WND
                 33032/0019 SLP110 T00611039 =
2018-12-17 18:54 METAR KVAY 172354Z AUTO 31011G24KT 10SM OVC055 06/M04 A2984 RMK AO2 SLP106
                 T00611044 10089 20061 53023 =
2018-12-17 17:54 METAR KVAY 172254Z AUTO 29010G18KT 250V320 10SM OVC055 07/M04 A2982 RMK AO2
                 SLP098 T00721039 =
2018-12-17 16:54 METAR KVAY 172154Z AUTO 29011G18KT 10SM OVC055 07/M03 A2979 RMK AO2 SLP089
                 T00721033 =

Support USWX by starting your Amazon purchase here.